Baltimore, Maryland
Traffic Map
Current Weather Conditions
Baltimore, Maryland
Broken Clouds
Broken Clouds
-1°
Feels Like: -8°
Wind Chill: -8° Ceiling: 7000
Heat Index: -1° Visibility: 10mi
Dew Point: -14° Wind: 21mph
Humidity: 37% Direction: 280° (W)
Pressure: 29.97in Gusts: 28mph
Raw Report DataKBWI 281354Z 28018G24KT 10SM BKN070 M01/M14 A2997 RMK AO2 SLP147 T10061139
Traffic Incident Summary
Active as of:
Severity:
Category:
InformationThere was an issue retrieving the traffic information for this location. Please try a different location or try again shortly.
Advertisements
Track Severe Weather on mobile